Time;durP1;ratioP1;P1;durP2;ratioP2;P2;SDS_P1;SDS_P2;PMS_P1;PMS_P2;Temp;Humidity;BMP_temperature;BMP_pressure;BME280_temperature;BME280_humidity;BME280_pressure;Samples;Min_cycle;Max_cycle;Signal;HPM_P1;HPM_P2
2024/03/22 06:56:08;;;;;;;12.63;7.80;;;;;;;10.11;77.11;97039.25;2099000;27;20586;-67
2024/03/22 06:58:13;;;;;;;11.32;7.47;;;;;;;9.90;77.41;97038.28;2084236;28;20795;-67
2024/03/22 06:59:13;;;;;;;10.33;6.40;;;;;;;10.06;77.01;97042.03;2098861;28;20217;-68
2024/03/22 07:01:16;;;;;;;9.27;6.18;;;;;;;10.50;75.95;97035.25;2099314;27;21037;-67
2024/03/22 07:02:18;;;;;;;12.13;6.50;;;;;;;10.51;76.11;97035.19;2103502;28;20724;-68
2024/03/22 07:03:18;;;;;;;18.25;7.25;;;;;;;10.63;75.65;97031.25;2095198;28;20803;-67
2024/03/22 07:04:19;;;;;;;12.43;6.10;;;;;;;10.70;75.65;97032.69;2089653;28;20768;-70
2024/03/22 07:05:21;;;;;;;8.70;5.87;;;;;;;10.60;75.77;97032.22;2089948;28;20629;-70
2024/03/22 07:06:24;;;;;;;15.70;5.95;;;;;;;10.82;75.17;97026.16;2094951;28;20211;-69
2024/03/22 07:07:25;;;;;;;12.20;6.28;;;;;;;10.99;74.88;97027.25;2086711;28;20212;-69
2024/03/22 07:08:26;;;;;;;12.47;5.30;;;;;;;10.91;75.35;97027.56;2082585;28;20197;-69
2024/03/22 07:09:29;;;;;;;8.50;5.73;;;;;;;11.18;76.16;97024.75;2089960;28;20287;-69
2024/03/22 07:10:31;;;;;;;12.75;6.30;;;;;;;11.03;75.57;97026.22;2090229;28;20475;-68
2024/03/22 07:11:32;;;;;;;15.32;6.60;;;;;;;11.18;75.17;97025.59;2089007;28;20798;-69
2024/03/22 07:12:33;;;;;;;13.88;5.45;;;;;;;11.67;74.84;97017.44;2088462;28;20204;-69
2024/03/22 07:13:34;;;;;;;10.10;5.87;;;;;;;11.94;72.66;97027.63;2085717;28;20203;-69
2024/03/22 07:14:35;;;;;;;12.47;6.40;;;;;;;11.96;71.78;97031.06;2094790;28;20214;-69
2024/03/22 07:15:35;;;;;;;11.33;6.30;;;;;;;12.08;72.12;97027.03;2094166;28;20452;-69
2024/03/22 07:16:37;;;;;;;14.70;6.03;;;;;;;12.34;71.74;97025.00;2090222;28;20200;-70
2024/03/22 07:17:37;;;;;;;13.68;5.82;;;;;;;12.55;70.83;97026.63;2091410;28;20208;-70
2024/03/22 07:18:37;;;;;;;9.80;6.53;;;;;;;12.69;69.61;97022.53;2090933;28;20214;-70
2024/03/22 07:19:38;;;;;;;10.23;5.70;;;;;;;12.98;69.04;97022.94;2097366;28;20230;-70
2024/03/22 07:20:39;;;;;;;9.33;5.40;;;;;;;12.84;69.25;97028.81;2094500;28;20228;-69
2024/03/22 07:21:39;;;;;;;14.50;6.00;;;;;;;13.06;68.79;97018.16;2094911;28;20813;-70
2024/03/22 07:22:39;;;;;;;19.83;5.63;;;;;;;13.12;68.29;97023.09;2092089;28;20215;-69
2024/03/22 07:23:40;;;;;;;11.03;5.80;;;;;;;13.42;66.95;97029.53;2091856;28;20278;-69
2024/03/22 07:24:41;;;;;;;10.77;5.97;;;;;;;13.49;66.77;97026.53;2094614;28;20195;-70
2024/03/22 07:25:45;;;;;;;13.20;6.33;;;;;;;13.31;67.25;97022.19;2094387;28;20461;-69
2024/03/22 07:26:46;;;;;;;10.20;6.28;;;;;;;13.46;67.31;97029.31;2092532;28;20689;-70
2024/03/22 07:27:49;;;;;;;14.63;5.78;;;;;;;13.51;66.74;97027.31;2091248;28;20204;-70
2024/03/22 07:28:49;;;;;;;12.10;6.32;;;;;;;13.39;67.09;97026.16;2087940;28;20209;-70
2024/03/22 07:29:50;;;;;;;8.50;5.77;;;;;;;13.62;66.41;97018.88;2090597;28;20215;-70
2024/03/22 07:30:50;;;;;;;14.63;5.47;;;;;;;14.33;65.33;97027.47;2094872;28;20215;-69
2024/03/22 07:31:51;;;;;;;14.47;6.40;;;;;;;14.01;65.23;97017.75;2097177;28;20417;-70
2024/03/22 07:32:51;;;;;;;12.53;6.40;;;;;;;14.18;65.02;97021.25;2090023;28;20257;-70
2024/03/22 07:33:53;;;;;;;11.53;6.43;;;;;;;14.05;63.69;97021.06;2094434;28;20226;-69
2024/03/22 07:34:54;;;;;;;10.30;5.07;;;;;;;14.56;62.37;97017.50;2103002;28;20225;-70
2024/03/22 07:35:54;;;;;;;7.63;4.55;;;;;;;14.67;61.84;97018.63;2095400;28;20210;-70
2024/03/22 07:36:55;;;;;;;12.03;6.13;;;;;;;14.90;61.61;97013.88;2097386;28;20203;-70
2024/03/22 07:37:56;;;;;;;10.27;5.97;;;;;;;14.62;61.97;97015.38;2090999;28;20196;-70
2024/03/22 07:38:58;;;;;;;11.55;6.22;;;;;;;14.34;62.64;97016.03;2085742;28;20196;-70
2024/03/22 07:39:58;;;;;;;9.32;6.03;;;;;;;14.39;62.29;97013.19;2086692;28;21166;-70
2024/03/22 07:40:59;;;;;;;13.03;6.30;;;;;;;14.62;62.33;97017.16;2092740;28;20655;-70
2024/03/22 07:41:59;;;;;;;12.87;5.00;;;;;;;14.56;62.12;97007.00;2097942;28;20223;-70
2024/03/22 07:43:05;;;;;;;13.40;7.70;;;;;;;15.11;61.89;97005.69;2091151;28;20286;-70
2024/03/22 07:44:06;;;;;;;12.10;7.45;;;;;;;15.85;59.78;97000.59;2091606;28;20246;-70
2024/03/22 07:45:06;;;;;;;16.00;8.43;;;;;;;15.54;61.05;96997.97;2091216;28;20204;-70
2024/03/22 07:46:07;;;;;;;15.30;8.53;;;;;;;15.15;61.30;97000.19;2088096;28;20216;-71
2024/03/22 07:47:07;;;;;;;13.10;8.20;;;;;;;15.05;61.84;96985.03;2098745;28;20196;-72
2024/03/22 07:48:08;;;;;;;14.73;8.37;;;;;;;15.12;61.85;96996.88;2090521;28;20261;-71
2024/03/22 07:49:08;;;;;;;12.03;7.73;;;;;;;15.18;62.35;96996.53;2090139;28;20291;-70
2024/03/22 07:50:09;;;;;;;16.10;7.67;;;;;;;15.39;62.06;96996.22;2093336;28;20200;-70
2024/03/22 07:51:10;;;;;;;18.73;6.47;;;;;;;15.66;60.66;96997.22;2080554;28;20574;-70
2024/03/22 07:52:10;;;;;;;10.90;6.40;;;;;;;15.74;60.39;96998.56;2085698;28;20215;-70
2024/03/22 07:53:13;;;;;;;8.47;6.30;;;;;;;16.21;59.84;97005.38;2092480;28;20214;-70
2024/03/22 07:54:14;;;;;;;8.93;6.55;;;;;;;16.30;59.30;97002.19;2090373;28;20645;-70
2024/03/22 07:55:14;;;;;;;10.53;6.17;;;;;;;16.69;59.30;97012.94;2088703;28;20207;-71
2024/03/22 07:56:15;;;;;;;9.20;5.40;;;;;;;16.77;59.28;97005.41;2096860;28;20218;-70
2024/03/22 07:57:16;;;;;;;13.90;5.50;;;;;;;16.83;59.11;97014.69;2090467;28;20618;-70
2024/03/22 07:58:16;;;;;;;10.97;6.20;;;;;;;16.91;58.98;97006.31;2097578;28;20724;-70
2024/03/22 07:59:17;;;;;;;10.67;6.40;;;;;;;17.22;57.67;97002.53;2098478;28;20684;-70
2024/03/22 08:00:18;;;;;;;7.20;4.30;;;;;;;16.83;57.72;97001.50;2088836;28;20702;-68
2024/03/22 08:01:18;;;;;;;7.30;4.97;;;;;;;16.26;58.80;97011.19;2089783;28;20788;-71
2024/03/22 08:02:19;;;;;;;10.60;5.43;;;;;;;16.16;59.22;97005.66;2090171;28;20553;-70
2024/03/22 08:03:19;;;;;;;9.50;5.20;;;;;;;15.90;60.03;97011.69;2090011;28;20623;-70
2024/03/22 08:04:20;;;;;;;9.03;5.03;;;;;;;15.51;61.36;97012.16;2106438;28;20290;-70
2024/03/22 08:05:21;;;;;;;6.43;4.13;;;;;;;15.32;62.22;97014.16;2104701;28;20207;-69
2024/03/22 08:06:22;;;;;;;9.45;6.32;;;;;;;15.08;63.00;97008.50;2087908;28;20231;-70
2024/03/22 08:07:22;;;;;;;8.93;5.40;;;;;;;14.99;63.43;97005.47;2090746;28;20203;-70
2024/03/22 08:08:26;;;;;;;8.63;5.57;;;;;;;14.91;63.26;97006.84;2089216;28;20215;-69
2024/03/22 08:09:26;;;;;;;9.63;5.78;;;;;;;14.64;64.85;97000.41;2090118;28;20205;-70
2024/03/22 08:10:26;;;;;;;10.97;6.43;;;;;;;14.19;66.19;97007.22;2090785;28;20309;-70
2024/03/22 08:11:27;;;;;;;10.80;5.70;;;;;;;13.91;67.11;97007.81;2091246;28;20257;-70
2024/03/22 08:12:28;;;;;;;10.93;6.27;;;;;;;13.74;67.61;97004.31;2095317;28;20208;-70
2024/03/22 08:13:29;;;;;;;11.02;6.63;;;;;;;13.79;67.81;97006.66;2083987;28;20213;-70
2024/03/22 08:14:29;;;;;;;16.23;6.30;;;;;;;14.14;66.94;97004.81;2082625;28;20219;-70
2024/03/22 08:15:30;;;;;;;22.43;6.90;;;;;;;14.68;65.84;96999.31;2084476;28;20205;-70
2024/03/22 08:16:30;;;;;;;14.97;6.67;;;;;;;15.39;64.21;96999.72;2088045;28;20650;-70
2024/03/22 08:17:31;;;;;;;13.37;7.30;;;;;;;16.14;62.56;96999.63;2091203;28;20258;-70
2024/03/22 08:18:32;;;;;;;12.73;6.10;;;;;;;16.53;61.08;96996.41;2089463;28;20227;-70
2024/03/22 08:19:33;;;;;;;10.40;6.55;;;;;;;16.64;60.69;97000.03;2084334;28;20205;-71
2024/03/22 08:20:34;;;;;;;13.50;6.30;;;;;;;17.16;59.44;97002.09;2101399;28;20692;-71
2024/03/22 08:21:36;;;;;;;12.98;6.72;;;;;;;17.31;58.87;96990.53;2098692;28;20204;-71
2024/03/22 08:22:36;;;;;;;9.70;6.18;;;;;;;17.90;57.54;96990.06;2084365;28;20232;-71
2024/03/22 08:23:37;;;;;;;10.23;5.80;;;;;;;17.65;57.37;96990.03;2084285;28;20205;-71
2024/03/22 08:24:37;;;;;;;10.87;6.23;;;;;;;17.98;57.39;96984.28;2085034;28;20209;-71
2024/03/22 08:25:38;;;;;;;12.43;6.20;;;;;;;17.81;57.22;96979.28;2099013;28;20231;-71
2024/03/22 08:26:39;;;;;;;15.87;5.83;;;;;;;17.63;57.77;96984.88;2099786;28;20215;-71
2024/03/22 08:27:39;;;;;;;13.07;5.83;;;;;;;17.33;58.47;96986.00;2083342;28;20201;-71
2024/03/22 08:28:40;;;;;;;11.63;5.37;;;;;;;17.32;58.58;96988.72;2084326;28;20274;-71
2024/03/22 08:29:40;;;;;;;13.23;6.37;;;;;;;17.20;58.91;96991.22;2085462;28;20220;-71
2024/03/22 08:30:42;;;;;;;12.63;5.80;;;;;;;16.97;59.07;96990.09;2093482;28;20329;-71
2024/03/22 08:33:06;;;;;;;11.23;5.63;;;;;;;17.33;58.42;96986.00;2088938;28;20215;-71
2024/03/22 08:34:07;;;;;;;10.03;5.70;;;;;;;16.92;59.06;96986.91;2084856;28;20215;-70
2024/03/22 08:35:20;;;;;;;20.52;6.88;;;;;;;16.67;60.20;96975.28;2084220;28;20291;-70
2024/03/22 08:36:23;;;;;;;16.50;6.05;;;;;;;16.58;60.80;96976.72;2075714;28;20925;-71
2024/03/22 08:37:23;;;;;;;9.98;6.15;;;;;;;16.77;60.03;96975.53;2083386;28;20231;-71
2024/03/22 08:38:24;;;;;;;9.17;6.03;;;;;;;17.00;59.03;96978.50;2085374;28;20243;-71
2024/03/22 08:39:24;;;;;;;10.37;6.43;;;;;;;17.48;58.60;96964.78;2085294;28;20201;-71
2024/03/22 08:40:25;;;;;;;11.73;5.73;;;;;;;17.35;57.16;96968.25;2083071;28;20251;-71
2024/03/22 08:41:25;;;;;;;14.07;6.50;;;;;;;18.08;56.69;96976.53;2101025;28;20685;-71
2024/03/22 08:42:26;;;;;;;9.77;5.60;;;;;;;18.87;55.14;96968.34;2102038;28;20629;-71
2024/03/22 08:43:28;;;;;;;10.67;6.00;;;;;;;19.02;54.12;96966.38;2087189;28;20211;-71
2024/03/22 08:44:29;;;;;;;15.27;5.60;;;;;;;19.02;54.36;96966.38;2088933;28;20215;-71
2024/03/22 08:45:33;;;;;;;11.80;6.13;;;;;;;19.83;53.19;96964.72;2075773;28;20291;-70
2024/03/22 08:46:37;;;;;;;12.18;6.13;;;;;;;20.08;52.50;96964.63;2089435;28;20449;-72
2024/03/22 08:47:40;;;;;;;9.50;5.53;;;;;;;19.55;53.47;96965.94;2085153;28;20287;-71
2024/03/22 08:48:40;;;;;;;11.13;5.85;;;;;;;19.44;53.33;96968.56;2086761;28;20451;-70
2024/03/22 08:49:43;;;;;;;12.37;6.20;;;;;;;19.39;52.68;96971.59;2083344;28;20716;-70
2024/03/22 08:50:44;;;;;;;9.80;5.38;;;;;;;19.52;53.36;96966.19;2080207;28;20849;-70
2024/03/22 08:51:46;;;;;;;12.52;5.38;;;;;;;18.98;53.28;96962.25;2072230;28;20271;-72
2024/03/22 08:52:46;;;;;;;9.52;5.28;;;;;;;18.74;53.85;96963.06;2093593;28;20196;-70
2024/03/22 08:53:47;;;;;;;11.73;5.93;;;;;;;18.15;55.42;96971.69;2099247;28;20203;-71
2024/03/22 08:54:47;;;;;;;12.60;5.53;;;;;;;17.70;56.68;96964.16;2082665;28;20336;-70
2024/03/22 08:55:48;;;;;;;12.73;6.43;;;;;;;17.57;57.19;96962.38;2083489;28;20614;-70
2024/03/22 08:56:49;;;;;;;9.05;4.90;;;;;;;17.64;56.66;96962.81;2086952;28;20200;-70
2024/03/22 08:57:49;;;;;;;10.20;5.47;;;;;;;17.54;57.84;96965.22;2080507;28;20205;-70
2024/03/22 08:58:50;;;;;;;10.30;6.20;;;;;;;17.32;57.12;96964.97;2083037;28;20228;-70
2024/03/22 08:59:50;;;;;;;14.57;4.93;;;;;;;17.29;57.24;96969.50;2085156;28;20730;-70
2024/03/22 09:00:51;;;;;;;10.63;5.40;;;;;;;17.34;57.20;96957.81;2081085;28;20244;-69
2024/03/22 09:01:52;;;;;;;17.17;6.00;;;;;;;16.87;57.69;96958.16;2084406;28;20657;-70
2024/03/22 09:02:52;;;;;;;9.77;5.30;;;;;;;17.09;57.80;96959.41;2103195;28;20432;-70
2024/03/22 09:03:53;;;;;;;8.63;5.50;;;;;;;17.10;57.00;96958.47;2094962;28;20840;-69
2024/03/22 09:04:54;;;;;;;9.50;5.80;;;;;;;17.22;57.01;96954.19;2086747;28;20201;-69
2024/03/22 09:05:54;;;;;;;8.53;4.50;;;;;;;17.11;57.87;96954.91;2085101;28;20753;-69
2024/03/22 09:06:55;;;;;;;14.90;5.37;;;;;;;16.76;58.45;96952.72;2087686;28;20208;-69
2024/03/22 09:07:56;;;;;;;12.00;5.30;;;;;;;16.97;58.06;96951.38;2087263;28;20657;-69
2024/03/22 09:08:57;;;;;;;11.48;5.95;;;;;;;16.59;57.67;96954.66;2082507;28;20258;-69
2024/03/22 09:09:58;;;;;;;13.93;5.90;;;;;;;16.52;57.53;96956.03;2082545;28;20209;-69
2024/03/22 09:10:58;;;;;;;8.60;5.37;;;;;;;16.77;56.91;96950.03;2085708;28;20472;-69
2024/03/22 09:11:59;;;;;;;8.37;5.20;;;;;;;17.02;56.83;96953.72;2084039;28;20247;-69
2024/03/22 09:12:59;;;;;;;11.80;5.23;;;;;;;17.39;55.84;96945.97;2083305;28;20227;-69
2024/03/22 09:14:00;;;;;;;8.73;4.90;;;;;;;17.81;55.94;96944.94;2084756;28;20212;-69
2024/03/22 09:15:01;;;;;;;12.63;6.20;;;;;;;18.17;54.86;96946.00;2084068;28;20212;-69
2024/03/22 09:16:02;;;;;;;14.15;5.32;;;;;;;18.12;55.74;96941.03;2081664;28;20286;-69
2024/03/22 09:17:03;;;;;;;15.00;5.30;;;;;;;18.35;54.92;96942.03;2090044;28;20219;-69
2024/03/22 09:18:04;;;;;;;9.30;4.67;;;;;;;18.67;53.74;96938.88;2083647;28;20719;-69
2024/03/22 09:19:05;;;;;;;9.00;4.35;;;;;;;18.46;51.87;96922.75;2083822;28;20204;-69
2024/03/22 09:20:07;;;;;;;12.60;5.33;;;;;;;18.60;51.43;96935.84;2091824;28;20674;-70
2024/03/22 09:21:10;;;;;;;6.60;4.03;;;;;;;18.25;52.58;96935.72;2091862;28;20679;-69
2024/03/22 09:22:11;;;;;;;10.50;4.18;;;;;;;18.62;52.25;96934.88;2084211;28;20224;-69
2024/03/22 09:23:11;;;;;;;9.07;4.20;;;;;;;18.53;52.30;96931.94;2084115;28;20223;-69
2024/03/22 09:24:11;;;;;;;9.40;4.70;;;;;;;18.69;52.33;96930.81;2082356;28;20196;-69
2024/03/22 09:25:12;;;;;;;5.90;4.13;;;;;;;17.89;52.85;96932.91;2083346;28;20240;-69
2024/03/22 09:26:14;;;;;;;7.30;3.90;;;;;;;17.89;53.72;96939.97;2090416;28;20224;-69
2024/03/22 09:27:15;;;;;;;9.48;4.78;;;;;;;17.04;55.49;96935.13;2083883;28;20205;-69
2024/03/22 09:28:15;;;;;;;10.23;4.60;;;;;;;16.93;56.40;96923.50;2084104;28;20209;-69
2024/03/22 09:29:19;;;;;;;14.30;4.87;;;;;;;16.58;56.02;96917.88;2087410;28;20235;-69
2024/03/22 09:30:19;;;;;;;16.95;5.20;;;;;;;16.72;56.72;96928.38;2077370;28;20515;-69
2024/03/22 09:31:20;;;;;;;12.47;5.10;;;;;;;16.98;56.25;96924.03;2072309;28;20298;-69
2024/03/22 09:32:20;;;;;;;12.83;4.90;;;;;;;17.38;55.13;96928.47;2084415;28;20553;-69
2024/03/22 09:33:21;;;;;;;8.07;4.00;;;;;;;17.74;53.55;96921.59;2084765;28;20216;-69
2024/03/22 09:34:21;;;;;;;9.93;4.10;;;;;;;18.36;52.00;96919.09;2083792;28;20212;-69
2024/03/22 09:35:22;;;;;;;11.30;3.70;;;;;;;18.75;51.70;96914.50;2083718;28;20208;-69
2024/03/22 09:36:22;;;;;;;9.17;4.70;;;;;;;19.00;51.62;96918.84;2088337;28;20208;-69
2024/03/22 09:37:23;;;;;;;12.40;4.57;;;;;;;18.46;52.38;96911.34;2088450;28;20204;-69
2024/03/22 09:38:23;;;;;;;8.57;4.20;;;;;;;18.46;53.37;96917.47;2084053;28;20197;-70
2024/03/22 09:39:24;;;;;;;13.73;4.37;;;;;;;18.03;54.26;96915.25;2086622;28;20211;-69
2024/03/22 09:40:24;;;;;;;13.70;4.53;;;;;;;17.94;53.73;96901.75;2082945;28;20280;-69
2024/03/22 09:41:25;;;;;;;8.53;3.87;;;;;;;17.68;53.81;96914.09;2085142;28;20645;-69
2024/03/22 09:42:32;;;;;;;10.23;4.60;;;;;;;17.52;54.81;96913.47;2084186;28;20193;-69
2024/03/22 09:43:34;;;;;;;9.95;4.20;;;;;;;17.48;55.01;96915.47;2084842;28;20442;-69
2024/03/22 09:44:35;;;;;;;11.88;4.90;;;;;;;18.03;54.10;96912.59;2083459;28;20298;-69
2024/03/22 09:45:37;;;;;;;11.95;5.13;;;;;;;18.44;53.00;96912.28;2076246;28;20201;-70
2024/03/22 09:46:39;;;;;;;13.73;4.53;;;;;;;18.58;53.07;96905.19;2082393;28;20220;-70
2024/03/22 09:47:40;;;;;;;16.55;6.22;;;;;;;18.55;52.74;96908.88;2083615;28;20211;-69
2024/03/22 09:48:41;;;;;;;7.77;4.07;;;;;;;18.22;53.82;96909.50;2082471;28;20627;-69
2024/03/22 09:49:46;;;;;;;7.70;4.10;;;;;;;18.16;53.38;96899.41;2085796;28;20250;-69
2024/03/22 09:50:49;;;;;;;11.77;3.78;;;;;;;18.05;54.21;96905.44;2083624;28;20254;-69
2024/03/22 09:51:51;;;;;;;12.75;4.45;;;;;;;17.61;53.47;96905.75;2082785;28;20358;-69
2024/03/22 09:52:52;;;;;;;5.45;3.20;;;;;;;17.43;54.45;96905.25;2083846;28;20620;-69
2024/03/22 09:53:54;;;;;;;4.82;3.28;;;;;;;17.44;55.29;96900.78;2091886;28;20261;-69
2024/03/22 09:54:55;;;;;;;7.53;3.70;;;;;;;17.28;54.85;96893.94;2084101;28;20267;-69
2024/03/22 09:55:59;;;;;;;5.37;3.13;;;;;;;17.25;55.01;96901.19;2083764;28;20212;-69
2024/03/22 09:57:00;;;;;;;8.82;3.80;;;;;;;17.36;54.74;96903.97;2082811;28;20216;-69
2024/03/22 09:58:02;;;;;;;9.95;2.83;;;;;;;17.25;54.37;96891.47;2091737;28;20207;-69
2024/03/22 09:59:08;;;;;;;8.13;3.30;;;;;;;17.04;54.40;96893.78;2091913;28;20239;-69
2024/03/22 10:00:14;;;;;;;8.48;2.65;;;;;;;17.06;55.42;96891.88;2084171;28;20604;-69
2024/03/22 10:01:16;;;;;;;4.82;2.40;;;;;;;17.56;55.35;96896.47;2083188;28;20681;-70
2024/03/22 10:02:17;;;;;;;5.88;2.55;;;;;;;17.53;53.85;96900.16;2083408;28;20209;-70
2024/03/22 10:03:18;;;;;;;7.18;3.00;;;;;;;17.70;53.82;96890.22;2090458;28;20199;-69
2024/03/22 10:04:19;;;;;;;10.30;2.87;;;;;;;17.83;53.79;96891.06;2090440;28;20200;-70
2024/03/22 10:05:19;;;;;;;5.20;3.03;;;;;;;17.74;54.10;96886.44;2083345;28;20673;-69
2024/03/22 10:06:20;;;;;;;7.20;3.27;;;;;;;17.66;53.37;96881.69;2081513;28;20465;-69
2024/03/22 10:07:21;;;;;;;8.87;3.33;;;;;;;17.82;53.42;96884.09;2084165;28;20209;-69
2024/03/22 10:08:21;;;;;;;7.57;3.10;;;;;;;18.14;52.84;96888.09;2084470;28;20277;-70
2024/03/22 10:09:29;;;;;;;9.10;3.03;;;;;;;18.31;52.76;96879.78;2078042;28;20216;-69
2024/03/22 10:10:30;;;;;;;5.97;2.97;;;;;;;19.01;51.44;96883.50;2082938;28;20546;-69
2024/03/22 10:11:31;;;;;;;8.27;3.07;;;;;;;19.43;51.00;96883.00;2093174;28;20508;-69
2024/03/22 10:12:32;;;;;;;12.23;2.70;;;;;;;20.11;49.19;96885.69;2091441;28;20208;-69
2024/03/22 10:13:32;;;;;;;7.13;2.97;;;;;;;20.97;48.52;96872.56;2084180;28;20239;-69
2024/03/22 10:14:33;;;;;;;12.63;3.00;;;;;;;21.72;46.57;96877.00;2091545;28;20292;-69
2024/03/22 10:15:34;;;;;;;6.13;2.33;;;;;;;22.64;45.36;96876.88;2084082;28;20209;-69
2024/03/22 10:16:35;;;;;;;7.90;3.00;;;;;;;-145.49;100.00;55703.94;2083537;28;20445;-70
2024/03/22 10:17:36;;;;;;;6.85;2.50;;;;;;;22.64;45.36;96876.88;2091244;28;20234;-70
2024/03/22 10:18:36;;;;;;;4.72;2.40;;;;;;;22.91;42.99;96862.03;2087225;28;20216;-69
2024/03/22 10:19:37;;;;;;;4.40;2.93;;;;;;;22.91;42.90;96866.53;2088246;28;20235;-70
2024/03/22 10:20:38;;;;;;;6.93;2.27;;;;;;;23.04;42.83;96866.22;2090965;28;20294;-69
2024/03/22 10:21:38;;;;;;;10.60;2.83;;;;;;;22.02;42.84;96862.84;2085235;28;20207;-70
2024/03/22 10:22:59;;;;;;;6.00;2.77;;;;;;;21.89;43.89;96860.44;2084984;28;20448;-70
2024/03/22 10:23:59;;;;;;;5.05;2.42;;;;;;;21.95;43.87;96853.72;2088217;28;20654;-70
2024/03/22 10:25:00;;;;;;;6.23;2.10;;;;;;;22.16;44.19;96865.13;2086289;28;20508;-70
2024/03/22 10:26:01;;;;;;;5.95;2.88;;;;;;;22.33;42.41;96853.00;2087368;28;20285;-69
2024/03/22 10:27:02;;;;;;;8.80;2.50;;;;;;;21.90;43.09;96856.78;2084103;28;20238;-70
2024/03/22 10:28:03;;;;;;;3.97;2.10;;;;;;;21.62;44.26;96858.34;2090808;28;20346;-69
2024/03/22 10:29:06;;;;;;;7.83;2.43;;;;;;;22.87;43.06;96855.31;2090494;28;20210;-69
2024/03/22 10:30:09;;;;;;;7.13;2.47;;;;;;;23.19;42.01;96846.19;2091101;28;21034;-70
2024/03/22 10:31:11;;;;;;;6.10;3.05;;;;;;;23.06;42.30;96848.28;2087219;28;20231;-70
2024/03/22 10:32:12;;;;;;;8.50;2.63;;;;;;;22.82;42.42;96842.41;2087948;28;20208;-70
2024/03/22 10:33:13;;;;;;;5.05;2.33;;;;;;;22.89;41.65;96845.34;2088071;28;20289;-70
2024/03/22 10:34:14;;;;;;;4.53;2.63;;;;;;;22.44;41.37;96849.38;2085009;28;20708;-70
2024/03/22 10:35:16;;;;;;;6.45;2.20;;;;;;;22.67;41.32;96841.97;2082597;28;20547;-69
2024/03/22 10:36:17;;;;;;;5.18;1.80;;;;;;;22.12;42.31;96847.75;2083445;28;20229;-70
2024/03/22 10:37:18;;;;;;;4.90;2.42;;;;;;;22.18;42.30;96839.25;2082687;28;20215;-68
2024/03/22 10:38:20;;;;;;;5.40;2.13;;;;;;;22.07;42.98;96842.00;2083057;28;20200;-67
2024/03/22 10:39:23;;;;;;;5.80;2.63;;;;;;;22.14;43.03;96834.31;2082221;28;20792;-66
2024/03/22 10:40:24;;;;;;;8.55;2.50;;;;;;;22.46;41.94;96838.59;2086771;28;20223;-67
2024/03/22 10:41:26;;;;;;;9.68;2.22;;;;;;;22.37;42.69;96828.81;2084724;28;20565;-66
2024/03/22 10:42:26;;;;;;;7.45;2.70;;;;;;;23.45;40.32;96833.09;2082754;28;20212;-65
2024/03/22 10:43:27;;;;;;;6.40;2.23;;;;;;;23.97;40.34;96826.47;2085024;28;20224;-66
2024/03/22 10:44:27;;;;;;;8.40;2.60;;;;;;;23.58;40.42;96832.78;2087068;28;20208;-66
2024/03/22 10:45:29;;;;;;;5.73;2.10;;;;;;;23.60;40.53;96832.63;2087039;28;20211;-67
2024/03/22 10:46:30;;;;;;;5.50;2.80;;;;;;;23.56;41.20;96832.06;2086408;28;20216;-66
2024/03/22 10:47:33;;;;;;;7.97;2.80;;;;;;;23.63;40.44;96827.03;2094896;28;20262;-66
2024/03/22 10:48:33;;;;;;;5.88;2.60;;;;;;;23.67;40.53;96827.53;2084793;28;20220;-64
2024/03/22 10:49:37;;;;;;;5.00;1.80;;;;;;;23.12;41.39;96823.75;2082627;28;20288;-64
2024/03/22 10:50:42;;;;;;;5.05;1.88;;;;;;;21.92;41.62;96824.75;2083918;28;20219;-64
2024/03/22 10:51:46;;;;;;;6.53;2.38;;;;;;;21.40;41.59;96820.31;2084518;28;20663;-64
2024/03/22 10:52:58;;;;;;;6.95;2.42;;;;;;;20.78;42.58;96824.66;2083658;28;20243;-63
2024/03/22 10:54:01;;;;;;;6.20;1.95;;;;;;;20.24;43.52;96819.28;2086388;28;20211;-64
2024/03/22 10:55:06;;;;;;;6.93;1.85;;;;;;;20.79;43.02;96818.41;2085693;28;20270;-63
2024/03/22 10:56:08;;;;;;;4.72;2.28;;;;;;;21.46;42.48;96814.47;2086037;28;20208;-64
2024/03/22 10:57:13;;;;;;;4.40;2.17;;;;;;;21.51;42.23;96806.94;2086678;28;20201;-64
2024/03/22 10:58:16;;;;;;;7.07;2.30;;;;;;;20.63;43.47;96821.44;2086468;28;20205;-64
2024/03/22 10:59:21;;;;;;;4.95;1.75;;;;;;;19.12;44.82;96816.50;2084340;28;20258;-62
2024/03/22 11:00:36;;;;;;;4.47;2.00;;;;;;;19.83;44.72;96815.50;2081968;28;20209;-64
2024/03/22 11:01:37;;;;;;;8.07;1.92;;;;;;;20.63;43.83;96810.81;2086047;28;20204;-64
2024/03/22 11:02:38;;;;;;;6.25;2.00;;;;;;;20.99;44.41;96806.94;2086163;28;20209;-63
2024/03/22 11:03:39;;;;;;;9.50;2.07;;;;;;;20.98;43.99;96802.59;2084863;28;20270;-63
2024/03/22 11:04:39;;;;;;;4.40;1.80;;;;;;;20.94;44.18;96798.53;2092325;28;20200;-64
2024/03/22 11:05:47;;;;;;;8.47;2.03;;;;;;;20.87;43.79;96803.53;2081386;28;20278;-64
2024/03/22 11:06:49;;;;;;;4.90;1.60;;;;;;;20.54;44.32;96807.13;2084349;28;20297;-64
2024/03/22 11:08:04;;;;;;;8.15;2.58;;;;;;;20.91;44.52;96800.59;2079330;28;20256;-64
2024/03/22 11:09:05;;;;;;;7.85;1.90;;;;;;;20.67;44.16;96799.84;2079824;28;20329;-64
2024/03/22 11:10:06;;;;;;;5.50;2.30;;;;;;;20.50;43.73;96795.91;2084831;28;20287;-64
2024/03/22 11:11:10;;;;;;;6.70;2.13;;;;;;;19.82;44.48;96798.78;2087369;28;20227;-64
2024/03/22 11:12:11;;;;;;;4.63;1.70;;;;;;;20.93;43.65;96791.53;2084816;28;20213;-64
2024/03/22 11:13:12;;;;;;;6.50;1.87;;;;;;;21.07;43.21;96789.53;2091779;28;20515;-64
2024/03/22 11:14:12;;;;;;;7.30;1.47;;;;;;;21.11;43.67;96788.28;2092770;28;20441;-64
2024/03/22 11:15:13;;;;;;;5.93;1.60;;;;;;;20.86;43.81;96785.91;2085877;28;20437;-64
2024/03/22 11:16:15;;;;;;;6.28;2.35;;;;;;;20.62;44.96;96786.13;2085234;28;20235;-64
2024/03/22 11:17:15;;;;;;;3.15;1.63;;;;;;;19.93;45.53;96787.28;2084477;28;20565;-64
2024/03/22 11:18:17;;;;;;;3.77;1.80;;;;;;;19.22;46.76;96784.91;2087896;28;20208;-64
2024/03/22 11:19:17;;;;;;;5.00;1.70;;;;;;;19.29;47.16;96782.59;2087925;28;20204;-64
2024/03/22 11:20:18;;;;;;;6.80;1.93;;;;;;;19.44;46.45;96784.09;2092296;28;20204;-64
2024/03/22 11:21:18;;;;;;;9.37;2.70;;;;;;;19.54;46.12;96784.19;2089453;28;20234;-64
2024/03/22 11:22:19;;;;;;;4.67;1.90;;;;;;;19.96;45.34;96775.59;2091040;28;20212;-63
2024/03/22 11:23:20;;;;;;;4.53;2.20;;;;;;;19.95;45.62;96771.28;2091109;28;20219;-64
2024/03/22 11:24:20;;;;;;;9.98;2.08;;;;;;;19.89;45.28;96772.63;2092318;28;20208;-64
2024/03/22 11:25:21;;;;;;;6.13;2.47;;;;;;;20.30;45.17;96764.91;2094380;28;20210;-64
2024/03/22 11:26:21;;;;;;;6.33;1.97;;;;;;;19.89;46.09;96765.50;2095822;28;20233;-63
2024/03/22 11:27:22;;;;;;;5.43;1.73;;;;;;;19.84;45.82;96765.03;2094652;28;20218;-64
2024/03/22 11:28:22;;;;;;;3.70;1.70;;;;;;;19.23;45.90;96771.53;2091787;28;20216;-64
2024/03/22 11:29:24;;;;;;;3.23;1.83;;;;;;;19.36;46.94;96762.66;2091465;28;20286;-65
2024/03/22 11:30:25;;;;;;;4.43;1.75;;;;;;;19.64;46.92;96760.47;2096751;28;20203;-65
2024/03/22 11:31:30;;;;;;;6.77;1.60;;;;;;;19.92;46.67;96755.63;2086439;28;20231;-67
2024/03/22 11:32:30;;;;;;;4.68;2.15;;;;;;;20.00;45.60;96759.34;2084585;28;20215;-65
2024/03/22 11:33:31;;;;;;;8.73;1.70;;;;;;;19.80;45.91;96752.97;2084303;28;20303;-65
2024/03/22 11:34:32;;;;;;;3.90;1.70;;;;;;;19.54;46.07;96757.69;2084959;28;20219;-65
2024/03/22 11:35:33;;;;;;;3.93;1.93;;;;;;;19.83;45.59;96758.06;2084814;28;20287;-65
2024/03/22 11:36:35;;;;;;;6.55;1.42;;;;;;;19.70;45.56;96752.03;2086114;28;20351;-65
2024/03/22 11:37:35;;;;;;;2.85;1.80;;;;;;;20.03;45.68;96752.94;2087782;28;20208;-65
2024/03/22 11:38:36;;;;;;;6.07;2.23;;;;;;;19.50;46.36;96746.53;2087807;28;20530;-65
2024/03/22 11:39:37;;;;;;;4.87;1.97;;;;;;;19.71;46.46;96746.59;2091741;28;20208;-65
2024/03/22 11:40:38;;;;;;;3.60;2.00;;;;;;;19.64;45.95;96748.09;2081702;28;20214;-65
2024/03/22 11:41:39;;;;;;;5.43;2.50;;;;;;;19.82;46.50;96758.13;2083361;28;20243;-66
2024/03/22 11:42:42;;;;;;;2.88;1.48;;;;;;;19.92;46.23;96748.50;2083502;28;20271;-65
2024/03/22 11:43:43;;;;;;;7.57;1.90;;;;;;;20.05;46.16;96738.59;2091773;28;20231;-65
2024/03/22 11:44:44;;;;;;;3.28;1.73;;;;;;;20.65;45.42;96738.09;2083371;28;20211;-65
2024/03/22 11:45:45;;;;;;;7.63;1.97;;;;;;;20.58;44.95;96742.22;2085899;28;20234;-65
2024/03/22 11:46:45;;;;;;;7.83;1.93;;;;;;;19.87;45.97;96738.31;2087400;28;20248;-65